Alle Lego-Sets mit ein Set Nummer von 41000 zu 42000

Sortieren nach
Set TitelPreisDifferenzHinzugefügt
Jetboot Vergnügen (41000)5,49 €- 0,50 € (8%)2012-12-17
Mia's Magic Tricks (41001)9,95 €- 0,04 € (0%)2012-12-17
Stephanies großer Auftritt (41004)24,95 €+ 4,96 € (25%)2012-12-17
Stephanie's Soccer Practice (41011)14,95 €+ 4,96 € (50%)2012-12-17
Squirrel's Tree House (41017)2,95 €- 1,04 € (26%)2012-12-17
Cat's Playground (41018)2,95 €- 1,04 € (26%)2012-12-17
Turtle's Little Oasis (41019)2,95 €- 1,04 € (26%)2012-12-17
Hedgehog's Hideaway (41020)3,25 €- 0,74 € (19%)2013-05-01
Poodle's Little Palace (41021)3,25 €- 0,74 € (19%)2013-05-01
Bunny's Hutch (41022)3,25 €- 0,74 € (19%)2013-05-01
Olivias Gemüsegarten (41026)16,95 €- 3,04 € (15%)2013-12-27
Stephanies kleines Lämmchen (41029)7,95 €- 2,04 € (20%)2013-12-27
Erste Hilfe Dschungel-Bike (41032)10,71 €- 4,28 € (29%)2014-05-31
Einsatz am Dschungel-Wasserfall (41033)16,95 €- 3,04 € (15%)2014-05-31
Heartlake Saft- & Smoothiebar (41035)27,95 €- 5,04 € (15%)2013-12-27
Adventskalender (41040)19,95 €- 5,04 € (20%)2014-09-02
Schildkrötenparadies (41041)3,25 €- 1,24 € (28%)2013-12-27
Tigertempel (41042)3,25 €- 1,24 € (28%)2013-12-27
Papageiengarten (41044)3,25 €- 1,24 € (28%)2014-05-14
Äffchens Bananenbaum (41045)3,25 €- 1,24 € (28%)2014-05-14
Braunbär am Fluss (41046)3,25 €- 1,24 € (28%)2014-05-14
Robbenbaby-Fels (41047)3,25 €- 1,24 € (28%)2014-09-02
Löwenbaby-Oase (41048)3,25 €- 1,24 € (28%)2014-09-02
Heartlake Einkaufszentrum (41058)89,95 €- 10,04 € (10%)2014-05-31
Jasmins exotische Abenteuer (41061)24,99 €--2014-12-23
Elsas funkelnder Eispalast (41062)32,99 €- 7,00 € (18%)2014-12-23
Arielles Unterwasserschloss (41063)61,99 €+ 2,00 € (3%)2014-12-23
Rapunzels perfekter Tag (41065)17,99 €- 7,00 € (28%)2016-05-26
Annas und Kristoffs Schlittenabenteuer (41066)20,99 €- 9,00 € (30%)2015-12-04
Belles bezauberndes Schloss (41067)39,99 €- 10,00 € (20%)2016-05-26
Fest im großen Schloss von Arendelle (41068)41,35 €- 18,64 € (31%)2015-12-04
Korallinas Tag am Pool (41069)5,61 €- 2,38 € (30%)2015-12-15
Airas Erfinderwerkstatt (41071)9,99 €--2015-03-01
Naidas Abenteuerschiff (41073)23,99 €- 6,00 € (20%)2015-03-01
Das mystische Elfenversteck (41075)42,99 €- 7,00 € (14%)2015-03-01
Airas Pegasus-Schlitten (41077)34,95 €- 5,04 € (13%)2015-06-01
Skyras geheimnisvolles Himmelsschloss (41078)79,95 €- 10,04 € (11%)2015-06-01
Heartlake Friseursalon (41093)28,95 €- 4,04 € (12%)2014-12-25
Heartlake Leuchtturm (41094)33,71 €- 6,28 € (16%)2014-12-25
Emmas Familienhaus (41095)49,00 €- 20,99 € (30%)2014-12-25
Heartlake Heißluftballon (41097)21,72 €- 8,27 € (28%)2014-12-25
Emmas Kiosk (41098)7,95 €- 2,04 € (20%)2015-06-01
Heartlake Skatepark (41099)15,87 €- 4,12 € (21%)2015-06-01
Heartlake Jet (41100)22,95 €- 2,04 € (8%)2015-06-01
Heartlake Großes Hotel (41101)97,99 €- 32,00 € (25%)2015-06-01
LEGO® Friends Adventskalender (41102)19,95 €- 0,04 € (0%)2015-09-01
Popstar Aufnahmestudio (41103)12,49 €- 2,50 € (17%)2015-06-01
Popstar Garderobe (41104)29,95 €- 0,04 € (0%)2015-06-01
Popstar Showbühne (41105)37,99 €- 7,00 € (16%)2015-06-01
Popstar Tourbus (41106)40,00 €- 19,99 € (33%)2015-06-01
Popstar Limousine (41107)29,95 €+ 4,96 € (20%)2015-06-01
Heartlake Lebensmittelmarkt (41108)33,71 €- 6,28 € (16%)2015-06-01
Heartlake Flughafen (41109)84,95 €- 5,04 € (6%)2015-06-01
Geburtstagsparty (41110)15,95 €- 4,04 € (20%)2015-12-15
Partyzug (41111)7,95 €- 2,04 € (20%)2015-12-15
Partykuchen (41112)3,95 €- 1,04 € (21%)2015-12-15
Party-Geschenkeladen (41113)3,51 €- 1,48 € (30%)2015-12-15
Partystyling (41114)3,95 €- 1,04 € (21%)2015-12-15
Emmas Erfinderwerkstatt (41115)7,95 €- 2,04 € (20%)2015-12-19
Olivias Expeditionsauto (41116)11,99 €- 3,00 € (20%)2015-12-19
Popstar TV-Studio (41117)16,66 €- 8,33 € (33%)2015-12-19
Heartlake Supermarkt (41118)25,16 €- 9,83 € (28%)2015-12-19
Heartlake Cupcake-Café (41119)29,50 €- 10,49 € (26%)2015-12-19
Abenteuercamp Bogenschießen (41120)7,95 €- 2,04 € (20%)2015-12-15
Abenteuercamp Rafting (41121)21,39 €- 8,60 € (29%)2015-12-15
Abenteuercamp Baumhaus (41122)54,59 €- 15,40 € (22%)2015-12-15
Waschhäuschen für Emmas Fohlen (41123)7,09 €- 2,90 € (29%)2016-05-29
Heartlake Welpen-Betreuung (41124)20,41 €- 9,58 € (32%)2016-05-27
Pferdeanhänger und Tierärztin (41125)29,62 €- 10,37 € (26%)2016-05-27
Heartlake Reiterhof (41126)47,95 €- 17,04 € (26%)2016-05-27
Spielspaß im Freizeitpark (41127)12,99 €- 2,00 € (13%)2016-05-27
Raketen-Karussell (41128)14,67 €- 5,32 € (27%)2016-05-27
Hot-Dog-Stand im Freizeitpark (41129)20,37 €- 9,62 € (32%)2016-05-27
Großer Freizeitpark (41130)74,98 €- 25,01 € (25%)2016-05-27
LEGO® Friends Adventskalender 2016 (41131)16,74 €- 3,25 € (16%)2016-08-31
Niedrigsten PreisHeartlake Partyladen (41132)22,98 €- 7,01 € (23%)2016-05-29
Autoscooter im Freizeitpark (41133)29,96 €- 10,03 € (25%)2016-05-29
Niedrigsten PreisHeartlake Kunstschule (41134)79,99 €--2016-05-29
Livis Popstar-Villa (41135)47,95 €- 7,04 € (13%)2015-12-15
Daisys Schönheitssalon (41140)6,64 €- 3,35 € (34%)2015-12-15
Ballerines Königskutsche (41141)7,43 €- 2,56 € (26%)2015-12-15
Königliches Schloss der Palasttiere (41142)15,95 €- 4,04 € (20%)2015-12-19
Berrys Küche (41143)6,99 €--2016-12-01
Niedrigsten PreisSuzettes Reitanlage (41144)9,99 €--2016-12-01
Annas eisiges Abenteuer (41147)19,99 €--2016-12-01
Niedrigsten PreisElsas magischer Eispalast (41148)69,99 €--2016-12-01
Niedrigsten PreisVaianas Abenteuerinsel (41149)29,99 €--2016-12-01
Niedrigsten PreisVaiana auf hoher See (41150)39,99 €--2016-12-01
Emily Jones & das Winddrachen-Baby (41171)8,50 €- 1,49 € (15%)2016-03-01
Abenteuer mit dem Wasserdrachen (41172)14,50 €- 10,49 € (42%)2016-03-01
Drachenschule von Elvendale (41173)16,95 €- 3,04 € (15%)2016-03-01
Gasthaus "Zum Sternenlicht" (41174)27,99 €- 2,00 € (7%)2016-03-01
Lavahöhle des Feuerdrachens (41175)29,89 €- 10,10 € (25%)2016-03-01
Der geheime Marktplatz (41176)44,87 €- 15,12 € (25%)2016-03-01
Die kostbare Kristallmine (41177)18,99 €- 6,00 € (24%)2016-05-26
Das Drachenversteck (41178)37,42 €- 12,57 € (25%)2016-05-26
Rettung der Drachenkönigin (41179)54,98 €- 15,01 € (21%)2016-05-26
Raganas magisches Schattenschloss (41180)75,80 €- 14,19 € (16%)2016-05-26
Niedrigsten PreisBatgirl™ auf den Fersen des Batjets (41230)24,99 €--2016-12-01
Niedrigsten PreisHarley Quinn™ eilt zu Hilfe (41231)29,99 €--2016-12-01
Niedrigsten PreisHighschool der Super Heroes (41232)79,99 €--2016-12-01
Niedrigsten PreisLashinas Action-Cruiser (41233)14,99 €--2016-12-01
Niedrigsten PreisBumblebees™ Hubschrauber (41234)14,99 €--2016-12-01
Niedrigsten PreisWonder Womans™ Schlafgemach (41235)19,99 €--2016-12-01
Niedrigsten PreisWelpen-Meisterschaft (41300)19,99 €--2016-12-01
Niedrigsten PreisWelpenparade (41301)14,99 €--2016-12-01
Niedrigsten PreisWelpensalon (41302)4,99 €--2016-12-01
Niedrigsten PreisWelpenspielplatz (41303)4,99 €--2016-12-01
Niedrigsten PreisWelpenpark (41304)4,99 €--2016-12-01
Niedrigsten PreisEmmas Fotostudio (41305)9,99 €--2016-12-01
Niedrigsten PreisMias Strandroller (41306)9,99 €--2016-12-01
Niedrigsten PreisOlivias Erfinderlabor (41307)9,99 €--2016-12-01
Niedrigsten PreisStephanies Backstube (41308)9,99 €--2016-12-01
Niedrigsten PreisAndreas Showbühne (41309)9,99 €--2016-12-01
Niedrigsten PreisHeartlake Geschenkeservice (41310)17,99 €- 2,00 € (10%)2016-12-01
Niedrigsten PreisHeartlake Pizzeria (41311)26,99 €- 3,00 € (10%)2016-12-01
Niedrigsten PreisHeartlake Sportzentrum (41312)39,99 €--2016-12-01
Niedrigsten PreisHeartlake Freibad (41313)44,99 €- 5,00 € (10%)2016-12-01
Niedrigsten PreisStephanies Haus (41314)67,49 €- 2,50 € (4%)2016-12-01
Flain (41500)15,25 €+ 10,26 € (206%)2014-03-01
Krader (41503)9,99 €+ 5,00 € (100%)2014-03-01
Gox (41536)6,95 €+ 2,96 € (74%)2015-06-01
Jinky (41537)6,95 €+ 2,96 € (74%)2015-06-01
Kamzo (41538)3,95 €- 0,04 € (1%)2015-06-01
Spugg (41542)6,95 €+ 2,96 € (74%)2015-06-01
Turg (41543)6,95 €+ 2,96 € (74%)2015-06-01
Tungster (41544)6,95 €+ 2,96 € (74%)2015-06-01
Kramm (41545)3,99 €--2015-10-01
Forx (41546)3,99 €--2015-10-01
Wuzzo (41547)3,99 €--2015-10-01
Snax (41551)3,99 €--2015-10-01
Vaka-Waka (41553)3,99 €--2015-10-01
Kuffs (41554)3,95 €- 0,04 € (1%)2016-01-31
Busto (41555)3,90 €- 0,09 € (2%)2016-01-31
Tiketz (41556)3,95 €- 0,04 € (1%)2016-01-31
Camillot (41557)3,95 €- 0,04 € (1%)2016-01-31
Mixadel (41558)3,95 €- 0,04 € (1%)2016-01-31
Paladum (41559)3,95 €- 0,04 € (1%)2016-01-31
Jamzy (41560)3,95 €- 0,04 € (1%)2016-01-31
Tapsy (41561)3,95 €- 0,04 € (1%)2016-01-31
Trumpsy (41562)3,95 €- 0,04 € (1%)2016-01-31
4x4 Crawler Exclusive Edition (41999)749,99 €+ 570,00 € (317%)2013-08-01

Auch nicht verfügbar Sets zeigen